53PN weather

S W Jack Heliport
Indiana, Pennsylvania, United States

Public forecast

Using degrees Fahrenheit for public forecast. Weather courtesy of forecast.io.

METAR (pilot weather report)

Closest report is Indiana County/Jimmy Stewart Fld/ Airport, 0.4 nm (0.7 km) ENE. Retrieved 2019/09/21 08:35 UTC (0 seconds ago):

KIDI 210835Z AUTO 00000KT 10SM SCT046 SCT050 14/13 A3027 RMK A01

TAF (pilot weather forecast)

Closest forecast is John Murtha Johnstown Cambria County Airport, 22.8 nm (42.2 km) SE. Retrieved 2019/09/21 06:06 UTC (2 hours ago):

TAF KJST 210603Z 2106/2206 VRB03KT P6SM FEW050 FM211500 21005KT P6SM SCT050 FM211800 25005KT P6SM BKN050 FM220000 22003KT P6SM SCT100